Time;durP1;ratioP1;P1;durP2;ratioP2;P2;SDS_P1;SDS_P2;PMS_P1;PMS_P2;Temp;Humidity;BMP_temperature;BMP_pressure;BME280_temperature;BME280_humidity;BME280_pressure;Samples;Min_cycle;Max_cycle;Signal;HPM_P1;HPM_P2
2022/03/22 00:01:01;;;;;;;13.35;8.57;;;7.40;49.30;;;;;;5051705;28;20029;-78
2022/03/22 00:03:28;;;;;;;17.98;9.20;;;7.40;48.80;;;;;;5051667;28;20045;-79
2022/03/22 00:05:57;;;;;;;14.88;9.35;;;7.40;48.90;;;;;;5033125;28;20032;-78
2022/03/22 00:08:38;;;;;;;16.02;9.68;;;7.40;49.20;;;;;;5051618;28;20033;-78
2022/03/22 00:11:19;;;;;;;17.08;10.73;;;7.40;49.50;;;;;;5051895;28;20029;-78
2022/03/22 00:14:10;;;;;;;16.65;9.30;;;7.30;49.50;;;;;;5051562;28;20029;-79
2022/03/22 00:16:52;;;;;;;;;;;;;;;;;;;;;
2022/03/22 00:19:24;;;;;;;14.10;10.50;;;7.10;50.10;;;;;;5051785;28;20492;-79
2022/03/22 00:22:13;;;;;;;17.45;10.63;;;6.90;50.50;;;;;;5033382;28;20033;-78
2022/03/22 00:24:40;;;;;;;15.57;9.77;;;6.80;50.60;;;;;;5036254;28;20546;-78
2022/03/22 00:27:05;;;;;;;17.17;10.27;;;6.70;50.80;;;;;;5031015;28;20127;-79
2022/03/22 00:29:34;;;;;;;14.60;9.90;;;6.60;50.70;;;;;;5051244;28;20108;-78
2022/03/22 00:32:30;;;;;;;13.35;9.68;;;6.60;51.00;;;;;;5032424;28;20023;-78
2022/03/22 00:35:17;;;;;;;13.23;9.25;;;6.80;50.70;;;;;;5023356;28;20510;-78
2022/03/22 00:40:42;;;;;;;23.60;9.20;;;6.70;50.90;;;;;;5039820;28;20075;-79
2022/03/22 00:43:28;;;;;;;23.75;9.70;;;6.80;50.80;;;;;;5050744;28;20088;-79
2022/03/22 00:45:59;;;;;;;16.20;9.68;;;6.70;50.90;;;;;;5043939;28;20033;-78
2022/03/22 00:48:48;;;;;;;14.45;9.38;;;6.70;51.40;;;;;;5050828;28;20028;-79
2022/03/22 00:51:16;;;;;;;14.48;9.45;;;6.70;50.80;;;;;;5050799;28;20037;-79
2022/03/22 00:53:55;;;;;;;16.08;10.15;;;6.60;51.20;;;;;;5050577;28;20391;-78
2022/03/22 00:56:57;;;;;;;12.77;9.63;;;6.50;51.10;;;;;;5050710;28;20056;-78
2022/03/22 01:02:10;;;;;;;17.70;9.60;;;6.50;51.50;;;;;;5048783;28;20052;-79
2022/03/22 01:07:37;;;;;;;13.23;9.07;;;6.40;52.20;;;;;;5030729;28;20143;-79
2022/03/22 01:10:09;;;;;;;15.10;10.20;;;6.40;51.80;;;;;;5030661;28;20033;-79
2022/03/22 01:12:47;;;;;;;19.60;10.23;;;6.30;51.90;;;;;;5030654;28;20036;-79
2022/03/22 01:15:35;;;;;;;18.70;10.18;;;6.20;51.80;;;;;;5026680;28;20389;-78
2022/03/22 01:18:11;;;;;;;20.65;9.55;;;6.40;51.20;;;;;;5024615;28;20029;-79
2022/03/22 01:20:51;;;;;;;11.52;8.00;;;6.50;51.40;;;;;;5034120;28;20017;-78
2022/03/22 01:23:23;;;;;;;20.52;10.93;;;6.80;51.00;;;;;;5034823;28;20032;-79
2022/03/22 01:25:51;;;;;;;15.43;10.63;;;7.20;50.20;;;;;;5034611;28;20051;-79
2022/03/22 01:28:28;;;;;;;15.65;10.38;;;7.20;50.20;;;;;;5034652;28;20527;-79
2022/03/22 01:31:03;;;;;;;13.27;9.20;;;7.20;50.40;;;;;;5027616;28;20033;-78
2022/03/22 01:33:29;;;;;;;14.85;10.77;;;7.20;50.30;;;;;;5034662;28;20123;-79
2022/03/22 01:36:07;;;;;;;17.63;10.77;;;7.80;49.20;;;;;;5034487;28;20026;-79
2022/03/22 01:38:37;;;;;;;16.58;11.05;;;7.80;48.70;;;;;;5034534;28;20029;-79
2022/03/22 01:41:45;;;;;;;18.35;11.48;;;7.90;48.50;;;;;;5034304;28;20112;-79
2022/03/22 02:14:09;;;;;;;20.17;10.95;;;7.60;49.10;;;;;;4967061;28;20082;-79
2022/03/22 02:16:41;;;;;;;15.80;10.10;;;7.50;49.20;;;;;;4963767;28;20130;-79
2022/03/22 02:20:06;;;;;;;;;;;;;;;;;;;;;
2022/03/22 02:23:19;;;;;;;16.50;11.07;;;7.60;49.00;;;;;;4959215;28;20054;-79
2022/03/22 02:26:06;;;;;;;14.93;10.40;;;7.50;49.50;;;;;;4957419;28;20046;-80
2022/03/22 02:29:21;;;;;;;19.20;10.93;;;7.40;49.20;;;;;;4962853;28;20769;-80
2022/03/22 02:35:56;;;;;;;;;;;;;;;;;;;;;
2022/03/22 02:38:20;;;;;;;16.48;10.50;;;7.30;50.10;;;;;;5020719;28;20412;-80
2022/03/22 02:51:14;;;;;;;19.25;10.35;;;7.30;50.00;;;;;;5032585;28;20032;-78
2022/03/22 02:54:31;;;;;;;;;;;;;;;;;;;;;
2022/03/22 02:57:42;;;;;;;15.32;11.13;;;7.10;50.50;;;;;;5022729;28;20064;-78
2022/03/22 03:21:29;;;;;;;17.27;11.55;;;7.40;50.20;;;;;;4831861;29;20438;-79
2022/03/22 03:30:59;;;;;;;21.15;10.82;;;7.20;50.80;;;;;;4840728;29;20130;-79
2022/03/22 03:37:09;;;;;;;17.38;11.18;;;7.10;51.50;;;;;;4813476;29;20034;-78
2022/03/22 03:39:50;;;;;;;17.80;12.05;;;7.20;51.20;;;;;;4856842;29;20083;-78
2022/03/22 03:42:27;;;;;;;22.92;11.38;;;7.10;50.60;;;;;;4856026;29;20025;-78
2022/03/22 03:49:00;;;;;;;20.70;11.63;;;7.30;49.90;;;;;;5043127;28;20032;-79
2022/03/22 03:51:36;;;;;;;18.85;11.20;;;7.20;50.70;;;;;;5047664;28;20048;-79
2022/03/22 03:57:49;;;;;;;18.30;11.57;;;6.80;51.80;;;;;;5038622;28;20521;-79
2022/03/22 04:01:34;;;;;;;23.80;11.32;;;7.00;50.90;;;;;;5048068;28;20021;-79
2022/03/22 04:04:52;;;;;;;;;;;;;;;;;;;;;
2022/03/22 04:24:48;;;;;;;16.63;10.57;;;7.40;50.60;;;;;;4950183;28;20447;-79
2022/03/22 04:44:44;;;;;;;18.23;11.32;;;7.10;52.00;;;;;;4984326;28;20105;-79
2022/03/22 04:47:13;;;;;;;;;;;7.20;51.50;;;;;;4986468;28;20514;-80
2022/03/22 04:56:58;;;;;;;15.88;10.95;;;7.40;51.40;;;;;;4969572;28;20042;-80
2022/03/22 04:59:56;;;;;;;16.95;11.43;;;7.50;50.90;;;;;;4969436;28;20038;-79
2022/03/22 05:02:47;;;;;;;;;;;;;;;;;;;;;
2022/03/22 05:08:42;;;;;;;14.98;11.10;;;7.30;50.00;;;;;;5043515;28;20140;-80
2022/03/22 05:11:07;;;;;;;21.85;11.95;;;7.20;50.70;;;;;;5023346;28;20033;-79
2022/03/22 05:13:57;;;;;;;17.23;11.07;;;7.20;51.30;;;;;;5032672;28;20029;-79
2022/03/22 05:16:24;;;;;;;24.45;12.10;;;7.20;51.20;;;;;;5050905;28;20507;-79
2022/03/22 05:19:04;;;;;;;14.75;11.88;;;7.30;51.20;;;;;;5050832;28;20360;-79
2022/03/22 05:22:10;;;;;;;16.83;11.45;;;7.40;51.10;;;;;;5050593;28;20013;-79
2022/03/22 05:24:41;;;;;;;19.27;11.55;;;7.50;51.10;;;;;;5032320;28;20460;-79
2022/03/22 05:27:07;;;;;;;19.02;11.95;;;7.60;51.20;;;;;;5048653;28;20039;-79
2022/03/22 05:29:42;;;;;;;15.95;11.05;;;7.70;49.90;;;;;;5032478;28;20017;-79
2022/03/22 05:32:11;;;;;;;21.27;11.93;;;7.80;50.60;;;;;;5050775;28;20033;-79
2022/03/22 05:34:53;;;;;;;;;;;;;;;;;;;;;
2022/03/22 05:37:22;;;;;;;18.38;11.40;;;7.80;51.00;;;;;;5049832;28;20025;-79
2022/03/22 05:39:57;;;;;;;21.80;12.52;;;7.80;50.90;;;;;;5031671;28;20395;-78
2022/03/22 05:42:26;;;;;;;17.35;11.40;;;7.80;51.40;;;;;;5046002;28;20037;-79
2022/03/22 05:44:55;;;;;;;18.98;12.15;;;7.70;51.30;;;;;;5050340;28;20025;-79
2022/03/22 05:47:21;;;;;;;16.15;11.55;;;7.70;51.50;;;;;;5050083;28;20419;-79
2022/03/22 05:49:46;;;;;;;23.08;12.00;;;7.70;50.90;;;;;;5032527;28;20108;-81
2022/03/22 05:52:12;;;;;;;18.23;12.60;;;7.80;51.40;;;;;;5050414;28;20115;-81
2022/03/22 05:54:38;;;;;;;17.35;11.95;;;7.90;51.20;;;;;;5032310;28;20021;-81
2022/03/22 05:57:03;;;;;;;21.42;12.95;;;8.10;50.60;;;;;;5032761;28;20537;-81
2022/03/22 05:59:29;;;;;;;16.27;11.50;;;8.20;51.30;;;;;;5049969;28;20082;-81
2022/03/22 06:01:55;;;;;;;18.98;12.38;;;8.20;52.20;;;;;;5050029;28;20029;-81
2022/03/22 06:04:41;;;;;;;14.80;11.32;;;8.20;51.10;;;;;;5034232;28;20131;-80
2022/03/22 06:07:13;;;;;;;18.27;11.82;;;8.20;52.30;;;;;;5047798;28;20586;-79
2022/03/22 06:09:39;;;;;;;18.55;12.55;;;8.30;51.60;;;;;;5036129;28;20619;-80
2022/03/22 06:12:06;;;;;;;18.55;12.30;;;8.30;51.80;;;;;;5054062;28;20049;-78
2022/03/22 06:14:41;;;;;;;19.73;12.45;;;8.40;51.70;;;;;;5053468;28;20495;-78
2022/03/22 06:17:07;;;;;;;14.32;11.30;;;8.50;51.40;;;;;;5051962;28;20033;-78
2022/03/22 06:19:35;;;;;;;19.52;12.15;;;8.50;53.50;;;;;;5053517;28;20084;-77
2022/03/22 06:22:01;;;;;;;17.08;12.10;;;8.60;51.60;;;;;;5053407;28;20032;-77
2022/03/22 06:24:27;;;;;;;19.10;11.48;;;8.70;50.80;;;;;;5035532;28;20021;-78
2022/03/22 06:27:02;;;;;;;22.58;13.05;;;8.70;50.90;;;;;;5053542;28;21023;-78
2022/03/22 06:29:28;;;;;;;20.98;13.43;;;8.80;50.50;;;;;;5053197;28;20025;-78
2022/03/22 06:31:56;;;;;;;23.20;13.65;;;8.90;49.60;;;;;;5053906;28;20040;-77
2022/03/22 06:34:41;;;;;;;21.92;12.55;;;9.00;50.30;;;;;;5035721;28;20112;-78
2022/03/22 06:37:12;;;;;;;19.33;11.95;;;9.10;50.50;;;;;;5046550;28;20072;-78
2022/03/22 06:39:41;;;;;;;14.10;11.38;;;9.10;50.60;;;;;;5052927;28;20103;-77
2022/03/22 06:42:16;;;;;;;17.83;11.43;;;9.20;50.20;;;;;;5047112;28;20497;-78
2022/03/22 06:44:43;;;;;;;25.30;11.52;;;9.30;49.90;;;;;;5053403;28;20021;-78
2022/03/22 06:47:11;;;;;;;17.95;11.77;;;9.40;50.90;;;;;;5053212;28;20021;-77
2022/03/22 06:49:37;;;;;;;21.27;12.50;;;9.50;50.80;;;;;;5034997;28;20044;-78
2022/03/22 06:52:03;;;;;;;20.42;12.18;;;9.50;49.40;;;;;;5035492;28;20029;-78
2022/03/22 06:54:52;;;;;;;23.63;12.45;;;9.50;49.30;;;;;;5053006;28;20025;-78
2022/03/22 06:57:19;;;;;;;16.95;12.18;;;9.70;49.00;;;;;;5052513;28;20036;-78
2022/03/22 06:59:45;;;;;;;19.02;12.18;;;9.80;49.20;;;;;;5035106;28;20101;-78
2022/03/22 07:02:11;;;;;;;17.52;12.30;;;9.80;49.30;;;;;;5035193;28;20029;-79
2022/03/22 07:04:37;;;;;;;18.45;12.25;;;9.90;49.90;;;;;;5052627;28;20037;-79
2022/03/22 07:07:03;;;;;;;15.80;11.43;;;10.00;48.80;;;;;;5053032;28;20625;-79
2022/03/22 07:09:31;;;;;;;20.17;11.73;;;10.00;48.30;;;;;;5034600;28;20063;-79
2022/03/22 07:12:00;;;;;;;16.77;12.00;;;10.10;48.20;;;;;;5052717;28;20510;-78
2022/03/22 07:14:29;;;;;;;22.60;12.52;;;10.20;48.20;;;;;;5034280;28;20025;-78
2022/03/22 07:16:57;;;;;;;17.58;12.00;;;10.40;48.70;;;;;;5051092;28;20117;-79
2022/03/22 07:19:23;;;;;;;21.20;11.93;;;10.50;47.00;;;;;;5052787;28;20111;-79
2022/03/22 07:21:50;;;;;;;23.45;12.60;;;10.60;48.00;;;;;;5052378;28;20032;-79
2022/03/22 07:24:20;;;;;;;15.43;11.65;;;10.50;48.40;;;;;;5034915;28;20035;-79
2022/03/22 07:26:46;;;;;;;21.75;11.50;;;10.70;46.70;;;;;;5050221;28;20033;-79
2022/03/22 07:29:13;;;;;;;21.67;12.40;;;10.70;48.70;;;;;;5048898;28;20025;-78
2022/03/22 07:31:41;;;;;;;18.65;12.07;;;10.70;48.90;;;;;;5051095;28;20137;-80
2022/03/22 07:34:16;;;;;;;16.75;11.10;;;10.70;47.90;;;;;;5050869;28;20025;-79
2022/03/22 07:36:46;;;;;;;24.45;13.45;;;10.80;50.30;;;;;;5051344;28;20021;-79
2022/03/22 07:39:13;;;;;;;18.55;12.05;;;10.80;49.40;;;;;;5050922;28;20021;-79
2022/03/22 07:41:43;;;;;;;25.92;11.88;;;10.90;47.90;;;;;;5050101;28;20632;-79
2022/03/22 07:44:12;;;;;;;30.40;14.52;;;11.00;49.80;;;;;;5031107;28;20021;-79
2022/03/22 07:46:45;;;;;;;16.77;11.80;;;11.10;49.40;;;;;;5030826;28;20500;-79
2022/03/22 07:54:49;;;;;;;25.85;12.70;;;11.20;47.80;;;;;;5049144;28;20798;-79
2022/03/22 07:57:15;;;;;;;18.85;11.32;;;11.40;46.30;;;;;;5048885;28;20096;-79
2022/03/22 07:59:41;;;;;;;21.95;11.85;;;11.50;48.10;;;;;;5049751;28;20548;-78
2022/03/22 08:02:09;;;;;;;28.92;12.63;;;11.50;47.80;;;;;;5050650;28;20029;-79
2022/03/22 08:04:35;;;;;;;31.85;12.35;;;11.60;47.00;;;;;;5032169;28;20036;-79
2022/03/22 08:07:01;;;;;;;14.98;11.43;;;11.70;48.90;;;;;;5032445;28;20056;-79
2022/03/22 08:09:27;;;;;;;18.75;12.02;;;11.90;46.90;;;;;;5051107;28;20060;-80
2022/03/22 08:12:11;;;;;;;17.55;11.60;;;11.90;46.40;;;;;;5051691;28;20047;-77
2022/03/22 08:14:38;;;;;;;27.85;11.65;;;12.00;45.60;;;;;;5051174;28;20032;-80
2022/03/22 08:17:04;;;;;;;20.42;11.93;;;12.00;45.20;;;;;;5051976;28;20020;-79
2022/03/22 08:19:30;;;;;;;21.38;11.98;;;12.00;46.00;;;;;;5051047;28;20029;-80
2022/03/22 08:21:59;;;;;;;17.95;11.90;;;12.00;45.20;;;;;;5051538;28;20028;-80
2022/03/22 08:24:24;;;;;;;18.27;11.32;;;12.10;45.40;;;;;;5051385;28;20032;-79
2022/03/22 08:26:50;;;;;;;18.67;12.13;;;12.20;44.90;;;;;;5050834;28;20021;-81
2022/03/22 08:29:16;;;;;;;18.73;12.13;;;12.30;45.40;;;;;;5051419;28;20024;-80
2022/03/22 08:31:45;;;;;;;18.55;12.35;;;12.40;45.50;;;;;;5033185;28;20056;-80
2022/03/22 08:34:11;;;;;;;17.17;11.68;;;12.40;45.00;;;;;;5033450;28;20040;-80
2022/03/22 08:36:37;;;;;;;21.23;12.23;;;12.50;45.50;;;;;;5051239;28;20435;-80
2022/03/22 08:39:03;;;;;;;15.30;11.38;;;12.60;44.60;;;;;;5033285;28;20531;-80
2022/03/22 08:41:30;;;;;;;15.68;11.38;;;12.70;44.40;;;;;;5051061;28;20028;-78
2022/03/22 08:43:56;;;;;;;15.40;11.38;;;12.80;45.00;;;;;;5051114;28;20029;-79
2022/03/22 08:46:26;;;;;;;20.67;11.75;;;12.90;45.30;;;;;;5050667;28;20082;-81
2022/03/22 08:48:53;;;;;;;17.95;12.05;;;13.00;45.40;;;;;;5051251;28;20061;-78
2022/03/22 08:51:20;;;;;;;14.35;11.32;;;13.00;44.40;;;;;;5033073;28;20036;-79
2022/03/22 08:53:46;;;;;;;17.77;10.48;;;13.10;44.10;;;;;;5051080;28;20033;-76
2022/03/22 08:56:12;;;;;;;19.85;10.90;;;13.10;44.00;;;;;;5050557;28;20021;-79
2022/03/22 08:58:38;;;;;;;18.98;10.70;;;13.20;43.20;;;;;;5033012;28;20025;-75
2022/03/22 09:01:07;;;;;;;15.45;10.63;;;13.20;43.40;;;;;;5050746;28;20036;-77
2022/03/22 09:03:35;;;;;;;15.98;11.15;;;13.20;43.60;;;;;;5050451;28;20082;-77
2022/03/22 09:06:12;;;;;;;18.20;10.10;;;13.40;42.60;;;;;;5049935;28;20611;-77
2022/03/22 09:08:49;;;;;;;18.30;11.63;;;13.40;42.40;;;;;;5050472;28;20029;-77
2022/03/22 09:11:15;;;;;;;18.35;11.00;;;13.40;43.00;;;;;;5048119;28;20040;-76
2022/03/22 09:13:54;;;;;;;25.00;11.93;;;13.50;43.40;;;;;;5050375;28;20442;-77
2022/03/22 09:16:21;;;;;;;21.40;11.82;;;13.50;43.60;;;;;;5050086;28;20111;-77
2022/03/22 09:18:48;;;;;;;18.65;10.73;;;13.60;43.20;;;;;;5048863;28;20025;-77
2022/03/22 09:21:17;;;;;;;17.73;10.65;;;13.70;42.50;;;;;;5050156;28;20060;-78
2022/03/22 09:23:46;;;;;;;16.80;10.82;;;13.70;42.80;;;;;;5032198;28;20028;-78
2022/03/22 09:26:12;;;;;;;14.18;10.80;;;13.80;42.70;;;;;;5047840;28;20033;-78
2022/03/22 09:28:40;;;;;;;17.75;11.45;;;13.90;42.40;;;;;;5050344;28;20037;-77
2022/03/22 09:31:07;;;;;;;15.23;10.77;;;13.90;42.50;;;;;;5050064;28;20409;-78
2022/03/22 09:33:36;;;;;;;18.52;11.55;;;14.00;42.90;;;;;;5032489;28;20032;-79
2022/03/22 09:36:02;;;;;;;15.02;10.15;;;14.10;42.90;;;;;;5032694;28;20021;-78
2022/03/22 21:56:06;;;;;;;17.90;12.85;;;11.10;52.70;;;;;;5068236;27;20412;-78
2022/03/22 21:58:31;;;;;;;17.90;12.20;;;10.30;53.10;;;;;;5048155;28;20025;-76
2022/03/22 22:00:58;;;;;;;19.55;12.32;;;10.20;52.70;;;;;;5048147;28;20506;-78
2022/03/22 22:03:24;;;;;;;41.30;32.13;;;10.20;52.90;;;;;;5048126;28;20017;-80
2022/03/22 22:05:50;;;;;;;15.65;12.55;;;10.20;52.70;;;;;;5046934;28;20023;-77
2022/03/22 22:08:16;;;;;;;21.33;12.68;;;10.10;52.90;;;;;;5048264;28;20069;-78
2022/03/22 22:10:45;;;;;;;24.00;12.75;;;9.90;53.20;;;;;;5039274;28;20480;-76
2022/03/22 22:13:14;;;;;;;18.05;12.32;;;9.90;52.60;;;;;;5047978;28;20025;-76
2022/03/22 22:15:40;;;;;;;24.33;13.10;;;10.20;52.60;;;;;;5047746;28;20696;-77
2022/03/22 22:18:06;;;;;;;24.23;12.95;;;10.40;52.50;;;;;;5046422;28;20021;-78
2022/03/22 22:20:32;;;;;;;86.80;46.90;;;10.30;52.40;;;;;;5046548;28;20388;-78
2022/03/22 22:23:04;;;;;;;18.60;12.88;;;10.20;52.70;;;;;;5047619;28;20523;-78
2022/03/22 22:25:30;;;;;;;34.00;18.98;;;10.40;52.00;;;;;;5047427;28;20068;-78
2022/03/22 22:27:57;;;;;;;38.58;26.23;;;10.50;52.40;;;;;;5038689;28;20025;-77
2022/03/22 22:30:23;;;;;;;20.67;13.98;;;10.50;53.30;;;;;;5046068;28;20425;-78
2022/03/22 22:35:34;;;;;;;101.47;54.08;;;10.30;53.20;;;;;;5047371;28;20103;-77
2022/03/22 22:38:01;;;;;;;28.38;17.63;;;10.30;53.80;;;;;;5046414;28;20057;-75
2022/03/22 22:40:28;;;;;;;45.90;25.13;;;10.60;51.40;;;;;;5047065;28;20025;-76
2022/03/22 22:42:55;;;;;;;197.10;97.25;;;10.70;52.20;;;;;;5047025;28;20055;-77
2022/03/22 22:45:21;;;;;;;73.05;43.92;;;10.70;52.30;;;;;;5047069;28;20125;-75
2022/03/22 22:47:48;;;;;;;44.25;27.15;;;10.70;51.50;;;;;;5044761;28;20022;-76
2022/03/22 22:50:14;;;;;;;63.10;40.95;;;10.60;51.50;;;;;;5046871;28;20036;-76
2022/03/22 22:52:40;;;;;;;33.25;20.13;;;10.60;52.20;;;;;;5046967;28;20056;-76
2022/03/22 22:55:07;;;;;;;59.35;37.75;;;10.50;52.10;;;;;;5046670;28;20052;-75
2022/03/22 22:57:36;;;;;;;21.60;15.27;;;10.40;52.00;;;;;;5046989;28;20021;-76
2022/03/22 23:00:06;;;;;;;18.55;13.38;;;10.30;52.40;;;;;;5045484;28;20956;-76
2022/03/22 23:02:32;;;;;;;22.38;13.02;;;10.20;52.30;;;;;;5046873;28;20017;-77
2022/03/22 23:04:58;;;;;;;28.00;17.70;;;10.20;52.00;;;;;;5046581;28;20029;-77
2022/03/22 23:10:09;;;;;;;45.72;29.83;;;10.50;51.20;;;;;;5033211;28;20588;-77
2022/03/22 23:12:38;;;;;;;23.10;17.00;;;10.60;51.00;;;;;;5033273;28;20494;-76
2022/03/22 23:15:08;;;;;;;17.27;13.10;;;10.50;51.40;;;;;;5032073;28;20128;-75
2022/03/22 23:17:34;;;;;;;17.67;12.82;;;10.50;51.40;;;;;;5033201;28;20400;-76
2022/03/22 23:20:00;;;;;;;18.27;11.70;;;10.40;51.80;;;;;;5033047;28;20061;-76
2022/03/22 23:22:26;;;;;;;22.92;13.95;;;10.40;52.00;;;;;;5033496;28;20032;-76
2022/03/22 23:24:53;;;;;;;20.52;14.27;;;10.50;52.00;;;;;;5032892;28;20038;-76
2022/03/22 23:27:20;;;;;;;26.20;19.00;;;10.60;52.50;;;;;;5033109;28;20022;-75
2022/03/22 23:29:46;;;;;;;18.30;12.45;;;10.60;52.10;;;;;;5032082;28;20033;-75
2022/03/22 23:32:12;;;;;;;20.85;13.52;;;10.90;51.30;;;;;;5033173;28;20461;-75
2022/03/22 23:34:38;;;;;;;17.35;12.98;;;11.30;51.50;;;;;;5032344;28;20575;-75
2022/03/22 23:37:06;;;;;;;136.68;75.70;;;11.30;50.20;;;;;;5032194;28;20029;-76
2022/03/22 23:39:32;;;;;;;21.17;14.95;;;11.20;51.20;;;;;;5032219;28;20034;-76
2022/03/22 23:42:00;;;;;;;24.73;17.70;;;11.20;50.10;;;;;;5033361;28;20079;-75
2022/03/22 23:44:29;;;;;;;23.50;17.17;;;11.20;50.90;;;;;;5032728;28;20060;-74
2022/03/22 23:46:55;;;;;;;38.13;29.38;;;11.10;50.70;;;;;;5033115;28;20113;-76
2022/03/22 23:49:22;;;;;;;31.48;22.58;;;11.10;51.50;;;;;;5032445;28;20036;-74
2022/03/22 23:51:51;;;;;;;21.38;15.18;;;11.00;51.00;;;;;;5032693;28;20476;-74
2022/03/22 23:54:20;;;;;;;22.17;16.10;;;11.00;50.40;;;;;;5032451;28;20132;-74
2022/03/22 23:56:46;;;;;;;19.98;12.90;;;10.90;51.20;;;;;;5031988;28;20033;-74
2022/03/22 23:59:12;;;;;;;20.73;13.77;;;10.90;50.90;;;;;;5032340;28;20109;-75
